EVLA

Details ICAO EVLA (LPX)
Name LIEPAJA INTL
Region Latvia
Timezone Europe/Riga (UTC+2.0)
Plans Departing 4
Arriving 13
Stats Elevation 16 ft / 5 m (AMSL)
Location 56.517524° 21.097060°
Runways 1
Magnetic Variation 6.634° E
Sunrise 2017-12-12 07:02:46 UTC / 2017-12-12 09:02:46 Local
Sunset 2017-12-12 13:58:44 UTC / 2017-12-12 15:58:44 Local
Advertisement - Login to hide

Runways

ID Width Length Bearing (true) Bearing (mag) Surface Threshold Offset Overrun Length
07 131 ft / 40 m 6,548 ft / 1,996 m 70.20° 63.57° Asphalt 0 ft / 0 m 984 ft / 300 m
25 131 ft / 40 m 6,548 ft / 1,996 m 250.23° 243.60° Asphalt 0 ft / 0 m 197 ft / 60 m

Map

Weather


0- 5 10 15 20 25 30 35+ Temperature / ° C

Clouds and Precipitation
Forecast for 2017-12-12 00:00 UTC. Updated 2 hours ago

Ground ~20,000 ft ~40,000 ft Winds

METAR

EVLA 112250Z AUTO 11007KT 9999 BKN040/// BKN093/// OVC120/// 02/02 Q0993

TAF

TAF EVLA 112003Z 1121/1221 12010KT 9000 BKN010 TEMPO 1121/1206 3000 -RA BR BKN005 BECMG 1200/1202 19012KT BECMG 1209/1211 BKN015 TEMPO 1212/1221 21020G30KT BKN010

Frequencies

Tower 124.80 MHz METEO INFO
Approach 129.40 MHz APP/TWR
Warning: Do not use this data for real-world aviation or navigation. No guarantee of current accuracy is given.